createdAt,value
2023-03-22T00:02:16.465Z,75.35
2023-03-22T00:04:44.487Z,75.61
2023-03-22T00:07:12.747Z,75.72
2023-03-22T00:09:41.069Z,75.92
2023-03-22T00:12:09.139Z,77.54
2023-03-22T00:14:37.396Z,76.55
2023-03-22T00:17:05.527Z,75.88
2023-03-22T00:19:34.114Z,75.67
2023-03-22T00:22:04.014Z,76.09
2023-03-22T00:24:32.181Z,77.81
2023-03-22T00:27:00.961Z,77.26
2023-03-22T00:29:29.177Z,78.60
2023-03-22T00:31:57.530Z,77.64
2023-03-22T00:34:27.162Z,75.93
2023-03-22T00:36:56.436Z,75.06
2023-03-22T00:39:24.627Z,74.90
2023-03-22T00:41:52.640Z,74.90
2023-03-22T00:44:21.064Z,74.94
2023-03-22T00:46:49.268Z,74.63
2023-03-22T00:49:17.355Z,74.26
2023-03-22T00:51:45.404Z,74.14
2023-03-22T00:54:13.781Z,74.43
2023-03-22T00:56:45.610Z,75.01
2023-03-22T00:59:15.059Z,74.99
2023-03-22T01:01:43.970Z,75.83
2023-03-22T01:04:18.311Z,76.03
2023-03-22T01:06:47.319Z,75.32
2023-03-22T01:09:15.558Z,74.91
2023-03-22T01:11:44.008Z,74.66
2023-03-22T01:14:13.977Z,74.59
2023-03-22T01:16:42.158Z,74.74
2023-03-22T01:19:10.684Z,74.65
2023-03-22T01:21:39.270Z,74.78
2023-03-22T01:24:07.362Z,75.08
2023-03-22T01:26:36.018Z,75.62
2023-03-22T01:29:04.028Z,75.93
2023-03-22T01:31:32.041Z,76.18
2023-03-22T01:34:00.174Z,76.27
2023-03-22T01:36:28.690Z,76.68
2023-03-22T01:38:57.167Z,76.51
2023-03-22T01:41:25.704Z,76.53
2023-03-22T01:44:12.817Z,76.72
2023-03-22T01:46:42.873Z,76.78
2023-03-22T01:49:19.664Z,77.18
2023-03-22T01:51:51.159Z,77.15
2023-03-22T01:54:44.793Z,77.15
2023-03-22T01:57:39.660Z,77.10
2023-03-22T02:00:15.776Z,77.49
2023-03-22T02:03:07.533Z,77.62
2023-03-22T02:05:44.081Z,77.71
2023-03-22T02:08:15.279Z,77.82
2023-03-22T02:11:03.412Z,77.89
2023-03-22T02:13:48.853Z,78.15
2023-03-22T02:17:10.886Z,78.21
2023-03-22T02:20:11.780Z,78.36
2023-03-22T02:23:06.017Z,78.34
2023-03-22T02:25:34.106Z,78.38
2023-03-22T02:28:33.688Z,78.55
2023-03-22T02:31:24.675Z,78.68
2023-03-22T02:33:52.901Z,78.82
2023-03-22T02:36:53.974Z,78.80
2023-03-22T02:39:29.864Z,78.72
2023-03-22T02:42:10.390Z,78.69
2023-03-22T02:44:43.012Z,78.85
2023-03-22T02:47:22.539Z,78.93
2023-03-22T02:49:58.803Z,79.05
2023-03-22T02:52:36.664Z,79.09
2023-03-22T02:55:20.697Z,79.18
2023-03-22T02:58:31.154Z,79.02
2023-03-22T03:01:07.445Z,79.04
2023-03-22T03:03:38.016Z,78.96
2023-03-22T03:06:10.991Z,78.93
2023-03-22T03:08:40.396Z,78.95
2023-03-22T03:11:09.188Z,79.20
2023-03-22T03:13:37.423Z,79.37
2023-03-22T03:16:08.181Z,79.48
2023-03-22T03:18:49.101Z,79.62
2023-03-22T03:21:30.213Z,79.75
2023-03-22T03:24:15.573Z,80.16
2023-03-22T03:26:59.462Z,80.36
2023-03-22T03:29:54.578Z,81.11
2023-03-22T03:32:31.820Z,81.28
2023-03-22T03:35:07.225Z,81.45
2023-03-22T03:37:45.108Z,81.41
2023-03-22T03:40:18.500Z,81.72
2023-03-22T03:42:52.980Z,82.03
2023-03-22T03:45:22.270Z,82.23
2023-03-22T03:47:57.288Z,82.45
2023-03-22T03:50:27.026Z,82.46
2023-03-22T03:52:56.115Z,82.58
2023-03-22T03:55:26.833Z,82.75
2023-03-22T03:57:54.905Z,82.67
2023-03-22T04:00:23.183Z,82.65
2023-03-22T04:03:30.799Z,82.48
2023-03-22T04:06:01.521Z,82.49
2023-03-22T04:08:30.191Z,82.63
2023-03-22T04:10:58.786Z,82.50
2023-03-22T04:13:26.748Z,82.28
2023-03-22T04:15:57.555Z,82.19
2023-03-22T04:18:29.950Z,82.10
2023-03-22T04:20:58.488Z,82.00
2023-03-22T04:23:27.765Z,81.93
2023-03-22T04:25:59.824Z,81.92
2023-03-22T04:28:38.191Z,81.95
2023-03-22T04:31:07.181Z,82.01
2023-03-22T04:34:05.644Z,81.92
2023-03-22T04:36:50.014Z,82.37
2023-03-22T04:39:38.786Z,82.53
2023-03-22T04:42:32.927Z,82.61
2023-03-22T04:45:21.480Z,82.74
2023-03-22T04:47:55.038Z,82.87
2023-03-22T04:50:23.681Z,82.86
2023-03-22T04:52:54.433Z,82.79
2023-03-22T04:55:22.609Z,82.92
2023-03-22T04:57:51.286Z,82.98
2023-03-22T05:00:19.741Z,83.16
2023-03-22T05:02:48.720Z,83.36
2023-03-22T05:05:27.683Z,83.42
2023-03-22T05:07:56.573Z,83.48
2023-03-22T05:10:25.305Z,83.55
2023-03-22T05:12:54.778Z,83.66
2023-03-22T05:15:25.663Z,83.60
2023-03-22T05:17:55.856Z,83.92
2023-03-22T05:20:25.031Z,84.41
2023-03-22T05:23:10.383Z,84.64
2023-03-22T05:25:39.686Z,84.92
2023-03-22T05:28:08.793Z,85.52
2023-03-22T05:30:46.678Z,85.17
2023-03-22T05:33:41.789Z,84.19
2023-03-22T05:36:14.000Z,84.93
2023-03-22T05:38:59.457Z,84.49
2023-03-22T05:41:27.661Z,85.48
2023-03-22T05:43:56.053Z,84.19
2023-03-22T05:46:24.116Z,83.99
2023-03-22T05:49:24.946Z,84.49
2023-03-22T05:51:52.900Z,84.14
2023-03-22T05:54:22.014Z,84.44
2023-03-22T05:56:54.070Z,84.60
2023-03-22T05:59:23.678Z,84.24
2023-03-22T06:01:52.183Z,84.11
2023-03-22T06:04:22.973Z,84.50
2023-03-22T06:07:17.146Z,84.17
2023-03-22T06:10:01.892Z,83.58
2023-03-22T06:12:31.568Z,83.49
2023-03-22T06:15:16.531Z,82.99
2023-03-22T06:18:00.740Z,82.71
2023-03-22T06:20:31.372Z,82.89
2023-03-22T06:23:02.801Z,82.46
2023-03-22T06:25:30.812Z,82.62
2023-03-22T06:27:59.240Z,82.75
2023-03-22T06:30:27.462Z,82.53
2023-03-22T06:33:07.180Z,82.13
2023-03-22T06:35:37.802Z,82.13
2023-03-22T06:38:05.912Z,82.38
2023-03-22T06:40:36.886Z,82.15
2023-03-22T06:43:07.235Z,82.05
2023-03-22T06:45:36.649Z,82.01
2023-03-22T06:48:05.602Z,81.87
2023-03-22T06:50:54.101Z,81.77
2023-03-22T06:53:33.843Z,81.51
2023-03-22T06:56:03.678Z,81.49
2023-03-22T06:58:35.001Z,81.29
2023-03-22T07:01:03.082Z,81.21
2023-03-22T07:03:32.503Z,81.01
2023-03-22T07:06:12.290Z,80.85
2023-03-22T07:08:43.111Z,80.83
2023-03-22T07:11:11.492Z,80.94
2023-03-22T07:13:39.626Z,80.80
2023-03-22T07:16:11.598Z,80.37
2023-03-22T07:18:43.645Z,80.20
2023-03-22T07:21:12.164Z,80.46
2023-03-22T07:23:41.439Z,80.04
2023-03-22T07:26:13.595Z,80.77
2023-03-22T07:28:44.833Z,79.95
2023-03-22T07:31:14.901Z,79.55
2023-03-22T07:34:00.794Z,79.57
2023-03-22T07:36:30.964Z,79.46
2023-03-22T07:38:59.033Z,79.68
2023-03-22T07:41:33.425Z,79.37
2023-03-22T07:44:20.307Z,78.65
2023-03-22T07:46:57.822Z,78.60
2023-03-22T07:49:36.105Z,78.44
2023-03-22T07:52:08.824Z,77.82
2023-03-22T07:54:36.686Z,78.10
2023-03-22T07:57:06.914Z,78.01
2023-03-22T07:59:40.016Z,77.98
2023-03-22T08:02:12.187Z,78.47
2023-03-22T08:04:45.993Z,78.75
2023-03-22T08:07:32.810Z,78.94
2023-03-22T08:10:01.499Z,78.06
2023-03-22T08:12:29.766Z,78.18
2023-03-22T08:15:05.630Z,78.15
2023-03-22T08:17:34.558Z,78.43
2023-03-22T08:20:09.076Z,78.02
2023-03-22T08:22:46.154Z,77.31
2023-03-22T08:25:21.244Z,77.44
2023-03-22T08:27:49.760Z,77.83
2023-03-22T08:30:18.396Z,76.97
2023-03-22T08:32:46.549Z,77.27
2023-03-22T08:35:14.812Z,77.90
2023-03-22T08:37:42.956Z,77.94
2023-03-22T08:40:11.914Z,77.77
2023-03-22T08:42:47.833Z,77.46
2023-03-22T08:45:16.377Z,77.17
2023-03-22T08:47:50.033Z,77.16
2023-03-22T08:50:19.233Z,77.06
2023-03-22T08:52:53.813Z,77.49
2023-03-22T08:55:35.609Z,77.46
2023-03-22T08:58:13.895Z,77.37
2023-03-22T09:00:51.071Z,77.30
2023-03-22T09:03:43.509Z,77.24
2023-03-22T09:06:11.729Z,77.12
2023-03-22T09:08:42.213Z,76.68
2023-03-22T09:11:17.806Z,76.92
2023-03-22T09:13:47.706Z,76.81
2023-03-22T09:16:17.243Z,76.54
2023-03-22T09:18:46.351Z,76.42
2023-03-22T09:21:17.863Z,76.86
2023-03-22T09:24:00.648Z,76.67
2023-03-22T09:26:37.794Z,76.26
2023-03-22T09:29:07.430Z,76.42
2023-03-22T09:31:35.432Z,76.48
2023-03-22T09:34:16.493Z,76.78
2023-03-22T09:36:44.624Z,76.91
2023-03-22T09:39:12.931Z,77.34
2023-03-22T09:41:55.006Z,77.32
2023-03-22T09:44:34.204Z,76.95
2023-03-22T09:47:05.925Z,77.15
2023-03-22T09:49:52.571Z,77.00
2023-03-22T09:52:22.082Z,76.94
2023-03-22T09:54:52.760Z,76.81
2023-03-22T09:57:37.642Z,76.65
2023-03-22T10:00:21.020Z,76.26
2023-03-22T10:03:18.614Z,76.18
2023-03-22T10:05:56.021Z,75.47
2023-03-22T10:08:50.927Z,76.09
2023-03-22T10:11:45.011Z,75.58
2023-03-22T10:14:41.993Z,75.75
2023-03-22T10:17:17.540Z,75.84
2023-03-22T10:20:01.218Z,75.83
2023-03-22T10:22:37.053Z,75.87
2023-03-22T10:25:09.933Z,75.90
2023-03-22T10:30:23.091Z,75.74
2023-03-22T10:33:16.610Z,75.80
2023-03-22T10:35:45.894Z,74.59
2023-03-22T10:38:23.733Z,74.25
2023-03-22T10:40:55.923Z,73.87
2023-03-22T10:43:31.077Z,73.56
2023-03-22T10:46:02.654Z,74.78
2023-03-22T10:48:41.029Z,74.68
2023-03-22T10:51:18.455Z,74.67
2023-03-22T10:53:49.844Z,74.80
2023-03-22T10:56:21.092Z,74.14
2023-03-22T10:58:50.625Z,73.62
2023-03-22T11:01:29.364Z,73.84
2023-03-22T11:04:12.435Z,74.13
2023-03-22T11:06:54.734Z,73.64
2023-03-22T11:09:25.362Z,73.75
2023-03-22T11:12:03.935Z,73.95
2023-03-22T11:14:38.004Z,73.90
2023-03-22T11:17:06.477Z,74.00
2023-03-22T11:19:37.938Z,73.64
2023-03-22T11:22:37.896Z,73.00
2023-03-22T11:25:30.658Z,72.54
2023-03-22T11:28:04.980Z,72.30
2023-03-22T11:30:34.559Z,71.34
2023-03-22T11:33:08.445Z,71.11
2023-03-22T11:35:38.804Z,71.14
2023-03-22T11:38:07.734Z,71.28
2023-03-22T11:40:37.234Z,71.36
2023-03-22T11:43:23.354Z,71.91
2023-03-22T11:45:56.630Z,71.64
2023-03-22T11:48:28.219Z,71.13
2023-03-22T11:51:05.839Z,71.65
2023-03-22T11:53:37.321Z,71.50
2023-03-22T11:56:07.824Z,70.55
2023-03-22T11:58:41.913Z,70.20
2023-03-22T12:01:33.083Z,69.54
2023-03-22T12:04:04.280Z,69.25
2023-03-22T12:06:36.804Z,69.14
2023-03-22T12:09:22.428Z,69.48
2023-03-22T12:11:55.128Z,70.04
2023-03-22T12:14:40.443Z,70.11
2023-03-22T12:17:17.042Z,70.62
2023-03-22T12:20:24.236Z,70.42
2023-03-22T12:22:56.035Z,69.57
2023-03-22T12:25:36.347Z,69.09
2023-03-22T12:28:11.045Z,70.05
2023-03-22T12:30:49.541Z,70.30
2023-03-22T12:33:33.139Z,68.88
2023-03-22T12:36:04.498Z,68.75
2023-03-22T12:38:46.407Z,68.56
2023-03-22T12:41:25.389Z,68.39
2023-03-22T12:44:09.709Z,69.31
2023-03-22T12:46:51.736Z,69.92
2023-03-22T12:49:26.675Z,69.91
2023-03-22T12:52:11.393Z,69.95
2023-03-22T12:54:40.897Z,69.54
2023-03-22T12:57:10.989Z,69.66
2023-03-22T12:59:44.567Z,69.56
2023-03-22T13:02:27.552Z,69.40
2023-03-22T13:05:09.669Z,68.79
2023-03-22T13:07:48.271Z,67.97
2023-03-22T13:10:41.010Z,68.56
2023-03-22T13:13:21.306Z,68.93
2023-03-22T13:16:11.345Z,68.63
2023-03-22T13:18:42.558Z,68.05
2023-03-22T13:21:27.033Z,67.20
2023-03-22T13:24:10.570Z,67.25
2023-03-22T13:26:47.681Z,66.77
2023-03-22T13:29:25.237Z,66.40
2023-03-22T13:32:01.245Z,66.49
2023-03-22T13:34:32.137Z,67.72
2023-03-22T13:37:01.851Z,67.95
2023-03-22T13:39:34.991Z,67.35
2023-03-22T13:42:08.758Z,66.88
2023-03-22T13:44:40.050Z,67.29
2023-03-22T13:47:29.696Z,67.19
2023-03-22T13:50:17.191Z,66.68
2023-03-22T13:53:00.234Z,65.46
2023-03-22T13:55:42.022Z,66.02
2023-03-22T13:58:36.352Z,65.35
2023-03-22T14:01:09.252Z,65.23
2023-03-22T14:03:42.292Z,65.86
2023-03-22T14:06:19.206Z,65.32
2023-03-22T14:08:51.917Z,65.55
2023-03-22T14:11:26.416Z,64.97
2023-03-22T14:14:01.617Z,65.91
2023-03-22T14:17:02.361Z,66.27
2023-03-22T14:19:33.431Z,66.20
